Terminal Aerodrome Forecast
Issued by NWS Sterling, VA

Current Version | Previous Version | Graphics & Text | Print | Product List | Glossary On
Versions: 1 2 3 4 5 6 7 8 9 10 11 12 13 14 15 16 17 18 19 20 21 22 23 24
000
FTUS41 KLWX 212037 AAA
TAFMRB
TAF AMD
KMRB 212037Z 2121/2218 00000KT 1 1/2SM BR OVC002
     FM220100 VRB03KT 1 1/2SM -DZ OVC002
     FM220600 00000KT 1 1/2SM -DZ OVC001
     FM221300 VRB03KT 1SM -DZ OVC003
     FM221600 08005KT P6SM OVC008=

USA.gov is the U.S. government's official web portal to all federal, state and local government web resources and services.